METAR Data
IDs: Format: Raw Decoded Include TAF

Data at: 1753 UTC 25 Mar 2019

KGLS 251705Z 18004KT 6SM BR FEW009 SCT027 OVC034 22/20 A3015 RMK AO2 T02220200
KGLS 251652Z 21003KT 8SM FEW009 BKN027 OVC034 22/19 A3015 RMK AO2 SLP209 T02220194
KGLS 251628Z 00000KT 7SM FEW007 SCT016 OVC035 21/19 A3015 RMK AO2 T02110194
KGLS 251621Z 00000KT 6SM BR FEW005 BKN029 OVC037 21/20 A3015 RMK AO2 T02110200
KGLS 251552Z 03004KT 4SM BR OVC005 21/19 A3015 RMK AO2 SLP210 T02060194
KGLS 251550Z 03004KT 4SM BR OVC005 21/19 A3015 RMK AO2 CIG 003V006
KGLS 251533Z 02006KT 4SM BR OVC003 21/19 A3015 RMK AO2 T02060194
KGLS 251524Z 01006KT 2 1/2SM BR OVC003 21/19 A3015 RMK AO2 T02060194
KGLS 251515Z 01005KT 1 3/4SM BR OVC003 21/19 A3015 RMK AO2 T02060194
KGLS 251452Z 35005KT 2SM BR OVC003 21/19 A3013 RMK AO2 SLP203 T02060194 51016
KGLS 251448Z 35005KT 1 3/4SM BR OVC003 21/19 A3013 RMK AO2
KGLS 251407Z 00000KT 2SM BR OVC003 20/19 A3012 RMK AO2 T02000189
KGLS 251359Z 00000KT 1 3/4SM BR OVC003 20/19 A3011 RMK AO2 T02000194
KGLS 251352Z 00000KT 1/4SM FG OVC003 20/19 A3011 RMK AO2 SLP196 T02000194
KGLS 251314Z 00000KT 1/4SM FG OVC003 20/19 A3010 RMK AO2 T02000189
KGLS 251252Z 00000KT 3SM BR OVC004 19/19 A3008 RMK AO2 SLP187 T01940189
KGLS 251230Z 18003KT 3SM BR OVC004 19/18 A3008 RMK AO2 T01940183
KGLS 251200Z 21003KT 4SM BR BKN005 OVC014 19/18 A3007 RMK AO2 T01890183
KGLS 251152Z 21003KT 4SM BR BKN003 OVC014 19/18 A3007 RMK AO2 SLP181 T01890183 10194 20183 53006
KGLS 251104Z 20005KT 4SM BR BKN003 OVC014 19/18 A3005 RMK AO2 T01890183
KGLS 251052Z 19005KT 4SM BR SCT005 BKN014 19/18 A3005 RMK AO2 SLP174 T01890183
KGLS 251045Z 19005KT 4SM BR FEW003 BKN014 19/18 A3005 RMK AO2 T01890183
KGLS 251036Z 19004KT 4SM BR FEW005 SCT014 19/18 A3005 RMK AO2 T01890183
KGLS 250952Z AUTO 20005KT 5SM BR CLR 19/18 A3004 RMK AO2 SLP172 T01890183
KGLS 250852Z AUTO 19006KT 7SM SCT044 19/18 A3005 RMK AO2 SLP175 T01940183 58014
KGLS 250752Z AUTO 17006KT 6SM BR BKN044 19/18 A3006 RMK AO2 SLP180 T01890183
KGLS 250652Z AUTO 16005KT 7SM CLR 19/18 A3008 RMK AO2 SLP185 T01890183
KGLS 250552Z AUTO 16006KT 7SM FEW055 19/18 A3009 RMK AO2 SLP189 T01890183 10206 20189 402390178 51006
KGLS 250452Z AUTO 16007KT 8SM CLR 19/18 A3009 RMK AO2 SLP188 T01940183
KGLS 250352Z AUTO 16009KT 7SM CLR 19/18 A3008 RMK AO2 SLP187 T01940183
KGLS 250252Z AUTO 15010KT 8SM FEW050 20/19 A3007 RMK AO2 SLP183 T02000189 53003
KGLS 250152Z AUTO 15012KT 9SM SCT055 20/19 A3005 RMK AO2 SLP176 T02000189
KGLS 250052Z AUTO 14010KT 9SM OVC055 21/19 A3006 RMK AO2 SLP179 T02060189
KGLS 242352Z AUTO 14012KT 9SM OVC055 21/19 A3006 RMK AO2 SLP180 T02060189 10239 20206 58007
KGLS 242252Z AUTO 15012KT 10SM OVC060 22/19 A3007 RMK AO2 SLP183 T02170189
KGLS 242152Z 14011KT 10SM OVC060 22/18 A3008 RMK AO2 SLP185 T02220183
KGLS 242052Z 15012KT 10SM OVC060 22/18 A3009 RMK AO2 SLP187 T02220183 58017
KGLS 241952Z 16012KT 10SM FEW043 OVC060 23/18 A3010 RMK AO2 SLP192 T02280183
KGLS 241852Z 16012KT 10SM SCT045 SCT060 22/18 A3012 RMK AO2 SLP200 T02220183
KGLS 241752Z 15013KT 10SM FEW042 FEW050 23/18 A3014 RMK AO2 SLP204 T02280183 10233 20178 58003
KGLS 241726Z 15013KT 10SM FEW026 OVC048 22/18 A3014 RMK AO2 T02220183
KGLS 241652Z 15012KT 10SM BKN026 BKN044 OVC065 22/18 A3016 RMK AO2 SLP211 T02220183
KGLS 241608Z 15011KT 10SM SCT022 23/18 A3015 RMK AO2 T02280183
KGLS 241552Z 15010KT 10SM BKN022 22/18 A3015 RMK AO2 SLP210 T02170183
KGLS 241507Z 14011KT 10SM BKN023 22/18 A3015 RMK AO2 T02170183
KGLS 241452Z 15010KT 10SM FEW022 21/18 A3014 RMK AO2 SLP207 T02110183 53011
KGLS 241352Z 13009KT 8SM OVC070 19/18 A3013 RMK AO2 SLP203 T01940178
KGLS 241252Z 12008KT 8SM OVC070 19/17 A3011 RMK AO2 SLP197 T01890172
KGLS 241152Z 12006KT 9SM CLR 18/17 A3011 RMK AO2 SLP196 T01780167 10183 20178 53007
KGLS 241052Z 11005KT 9SM CLR 18/17 A3010 RMK AO2 SLP192 T01780167
KGLS 240952Z AUTO 12007KT 10SM FEW080 18/17 A3009 RMK AO2 SLP190 T01830167
KGLS 240852Z AUTO 12006KT 10SM CLR 18/17 A3009 RMK AO2 SLP189 T01780167 56014
KGLS 240752Z AUTO 13008KT 10SM CLR 18/17 A3009 RMK AO2 SLP189 T01830167
KGLS 240652Z AUTO 13008KT 10SM CLR 18/17 A3011 RMK AO2 SLP194 T01830167